Cowles, New Mexico
Current Conditions -  °F | °C
As of 2:53 PM on Sunday 25 Jan 2015 (Local Time) from KSAF Reporting Station
Clear Clear  
Wind Chill: 52°   Ceiling: Unl
Heat Index: 52°   Visibility: 10mi
Dew Point: 18°   Wind: 10mph
Humidity: 26%   Direction: 250°WSW
Pressure: 30.23"   Gusts: NA
Location:  35.8118°N, 105.659°W
Report Text: KSAF 252153Z 25009KT 10SM CLR 11/M08 A3023 RMK AO2 SLP214 T01111078
Loading
Personal Weather Stations






























Interactive Weather Map New forecast layout! Learn more

10-Day Weather Forecast

Advertisements
Track Severe Weather on mobile